Time;durP1;ratioP1;P1;durP2;ratioP2;P2;SDS_P1;SDS_P2;PMS_P1;PMS_P2;Temp;Humidity;BMP_temperature;BMP_pressure;BME280_temperature;BME280_humidity;BME280_pressure;Samples;Min_cycle;Max_cycle;Signal;HPM_P1;HPM_P2
2020/12/12 00:02:16;;;;;;;9.73;7.15;;;;;;;-0.08;78.52;99221.94;1829765;78;21588;-64
2020/12/12 00:04:43;;;;;;;12.70;7.42;;;;;;;-0.07;78.50;99221.51;1829728;78;21595;-64
2020/12/12 00:07:12;;;;;;;12.18;7.62;;;;;;;-0.08;78.53;99221.94;1829727;78;21477;-64
2020/12/12 00:09:40;;;;;;;15.68;8.33;;;;;;;-0.07;78.61;99230.45;1829664;78;21198;-65
2020/12/12 00:12:08;;;;;;;12.23;7.90;;;;;;;-0.09;78.56;99224.06;1829479;77;21068;-65
2020/12/12 00:14:37;;;;;;;10.05;7.40;;;;;;;-0.07;78.58;99227.90;1829230;78;21581;-65
2020/12/12 00:17:04;;;;;;;12.10;7.55;;;;;;;-0.08;78.64;99223.64;1829739;78;21148;-65
2020/12/12 00:19:32;;;;;;;13.25;8.38;;;;;;;-0.09;78.70;99223.22;1829730;78;21037;-65
2020/12/12 00:22:00;;;;;;;11.10;8.25;;;;;;;-0.10;78.81;99222.36;1829670;78;21200;-65
2020/12/12 00:24:28;;;;;;;13.25;8.23;;;;;;;-0.08;78.76;99222.36;1829627;78;21068;-65
2020/12/12 00:26:58;;;;;;;10.53;7.40;;;;;;;-0.07;78.69;99222.78;1829604;78;21571;-65
2020/12/12 00:29:25;;;;;;;14.38;8.65;;;;;;;-0.06;78.62;99225.77;1829735;78;21478;-64
2020/12/12 00:31:56;;;;;;;14.20;8.00;;;;;;;-0.05;78.67;99222.36;1829655;78;21576;-64
2020/12/12 00:34:26;;;;;;;13.30;7.60;;;;;;;-0.02;78.66;99223.63;1829686;78;22088;-65
2020/12/12 00:36:54;;;;;;;10.03;7.85;;;;;;;-0.02;78.66;99218.52;1829612;78;21127;-65
2020/12/12 00:39:22;;;;;;;11.12;8.05;;;;;;;-0.04;78.52;99221.08;1829712;78;21469;-65
2020/12/12 00:41:49;;;;;;;10.68;8.60;;;;;;;-0.06;78.50;99218.95;1829748;78;21084;-65
2020/12/12 00:44:17;;;;;;;11.12;8.15;;;;;;;-0.07;78.50;99221.08;1799776;78;21053;-65
2020/12/12 00:46:45;;;;;;;11.70;8.10;;;;;;;-0.10;78.45;99210.00;1829622;78;21355;-65
2020/12/12 00:49:14;;;;;;;10.28;7.67;;;;;;;-0.14;78.56;99208.31;1829616;78;21128;-65
2020/12/12 00:51:42;;;;;;;12.03;8.23;;;;;;;-0.16;78.67;99205.75;1829635;78;21052;-65
2020/12/12 00:54:09;;;;;;;10.45;8.13;;;;;;;-0.16;78.61;99201.06;1829630;78;21191;-65
2020/12/12 00:56:37;;;;;;;14.15;8.78;;;;;;;-0.18;78.65;99203.63;1829723;78;21552;-65
2020/12/12 00:59:04;;;;;;;10.43;7.53;;;;;;;-0.20;78.71;99196.84;1829662;78;21532;-65
2020/12/12 01:01:32;;;;;;;14.25;9.35;;;;;;;-0.22;78.81;99203.23;1829607;78;21069;-65
2020/12/12 01:04:00;;;;;;;11.70;8.05;;;;;;;-0.22;78.94;99201.11;1829654;78;21033;-65
2020/12/12 01:06:27;;;;;;;10.68;7.95;;;;;;;-0.21;79.00;99204.09;1829619;78;21072;-65
2020/12/12 01:08:55;;;;;;;12.20;8.85;;;;;;;-0.19;79.02;99204.91;1829673;78;21088;-65
2020/12/12 01:11:22;;;;;;;12.82;8.93;;;;;;;-0.18;79.02;99193.40;1829455;77;21367;-65
2020/12/12 01:13:50;;;;;;;14.83;8.50;;;;;;;-0.17;78.93;99205.75;1829606;78;21148;-66
2020/12/12 01:16:19;;;;;;;12.63;8.78;;;;;;;-0.20;79.00;99196.84;1829740;78;21456;-65
2020/12/12 01:18:47;;;;;;;12.55;8.98;;;;;;;-0.21;79.07;99192.16;1829618;78;21049;-65
2020/12/12 01:21:17;;;;;;;12.20;8.28;;;;;;;-0.20;79.00;99198.13;1829652;78;21231;-65
2020/12/12 01:23:45;;;;;;;11.38;7.95;;;;;;;-0.19;79.07;99198.52;1829629;78;21359;-65
2020/12/12 01:26:13;;;;;;;11.50;8.43;;;;;;;-0.17;79.00;99191.27;1829570;78;21155;-65
2020/12/12 01:28:41;;;;;;;11.43;7.87;;;;;;;-0.15;79.09;99186.16;1829613;78;21060;-65
2020/12/12 01:31:15;;;;;;;12.07;8.08;;;;;;;-0.13;78.99;99188.28;1829543;78;21895;-65
2020/12/12 01:33:43;;;;;;;11.03;8.08;;;;;;;-0.13;78.96;99187.86;1829617;78;21044;-66
2020/12/12 01:36:11;;;;;;;11.80;8.03;;;;;;;-0.15;79.11;99186.16;1829660;78;21352;-66
2020/12/12 01:38:38;;;;;;;12.35;8.73;;;;;;;-0.15;79.18;99179.34;1829552;78;21457;-66
2020/12/12 01:41:07;;;;;;;12.80;8.90;;;;;;;-0.13;79.15;99189.13;1829616;78;21135;-66
2020/12/12 01:43:35;;;;;;;11.45;8.10;;;;;;;-0.13;79.03;99197.23;1829620;78;21540;-66
2020/12/12 01:46:02;;;;;;;12.00;8.50;;;;;;;-0.13;79.09;99181.89;1829612;78;21052;-66
2020/12/12 01:48:29;;;;;;;14.65;8.58;;;;;;;-0.13;79.03;99183.17;1829613;78;21351;-66
2020/12/12 01:50:57;;;;;;;11.57;8.05;;;;;;;-0.14;79.15;99183.59;1829525;78;21917;-66
2020/12/12 01:53:26;;;;;;;13.53;9.18;;;;;;;-0.16;79.10;99180.63;1829584;78;21090;-66
2020/12/12 01:55:54;;;;;;;12.78;9.00;;;;;;;-0.17;79.18;99172.10;1800279;78;21552;-65
2020/12/12 01:58:22;;;;;;;14.15;8.88;;;;;;;-0.18;79.25;99172.10;1829768;78;21037;-66
2020/12/12 02:00:49;;;;;;;13.95;9.25;;;;;;;-0.16;79.35;99172.95;1829751;78;23599;-64
2020/12/12 02:03:18;;;;;;;10.20;7.47;;;;;;;-0.12;79.35;99178.48;1829734;78;21065;-65
2020/12/12 02:05:46;;;;;;;13.20;8.10;;;;;;;-0.09;79.23;99175.92;1774365;78;21100;-65
2020/12/12 02:08:18;;;;;;;12.18;8.78;;;;;;;-0.15;79.21;99170.39;1800074;78;21151;-65
2020/12/12 02:10:47;;;;;;;12.37;8.53;;;;;;;-0.17;79.30;99174.66;1830004;77;21100;-65
2020/12/12 02:13:17;;;;;;;12.63;8.95;;;;;;;-0.17;79.42;99172.53;1829672;78;21321;-65
2020/12/12 02:15:46;;;;;;;12.63;8.15;;;;;;;-0.17;79.49;99172.53;1829807;78;21516;-65
2020/12/12 02:18:20;;;;;;;15.72;9.78;;;;;;;-0.16;79.46;99174.23;1829770;78;21512;-65
2020/12/12 02:21:00;;;;;;;15.70;9.50;;;;;;;-0.18;79.53;99175.51;1829891;78;21489;-65
2020/12/12 02:23:28;;;;;;;17.20;9.73;;;;;;;-0.20;79.63;99175.12;1829763;78;21464;-65
2020/12/12 02:25:56;;;;;;;11.90;9.30;;;;;;;-0.22;79.82;99178.11;1829789;78;21588;-65
2020/12/12 02:28:31;;;;;;;13.45;9.35;;;;;;;-0.22;79.94;99180.23;1829739;78;21095;-65
2020/12/12 02:30:55;;;;;;;16.80;9.63;;;;;;;-0.25;80.08;99174.27;1829165;78;21123;-65
2020/12/12 02:33:23;;;;;;;15.58;9.18;;;;;;;-0.27;80.24;99174.70;1829746;78;21127;-65
2020/12/12 02:35:50;;;;;;;14.07;8.40;;;;;;;-0.30;80.42;99178.54;1829745;78;21634;-65
2020/12/12 02:38:18;;;;;;;13.32;9.65;;;;;;;-0.32;80.66;99178.97;1829735;78;21350;-65
2020/12/12 02:40:45;;;;;;;13.85;9.18;;;;;;;-0.35;80.82;99179.39;1829669;78;21124;-65
2020/12/12 02:43:13;;;;;;;13.85;8.65;;;;;;;-0.34;81.02;99178.97;1829744;78;21171;-65
2020/12/12 02:45:45;;;;;;;13.98;9.63;;;;;;;-0.37;81.25;99178.55;1829754;78;21044;-65
2020/12/12 02:48:14;;;;;;;13.40;10.13;;;;;;;-0.40;81.36;99173.89;1829925;78;21116;-65
2020/12/12 02:50:42;;;;;;;14.75;10.80;;;;;;;-0.43;81.57;99181.56;1829766;78;21368;-65
2020/12/12 02:53:10;;;;;;;18.60;10.23;;;;;;;-0.47;81.74;99175.61;1829675;78;21057;-65
2020/12/12 02:55:37;;;;;;;13.98;9.65;;;;;;;-0.44;81.92;99172.20;1829736;78;21048;-65
2020/12/12 02:58:04;;;;;;;19.15;10.98;;;;;;;-0.41;82.02;99167.94;1829800;78;21132;-65
2020/12/12 03:00:32;;;;;;;16.02;10.32;;;;;;;-0.39;81.99;99171.73;1829734;78;21564;-65
2020/12/12 03:02:59;;;;;;;12.10;8.98;;;;;;;-0.39;82.07;99173.86;1829695;78;21365;-65
2020/12/12 03:05:27;;;;;;;15.60;9.28;;;;;;;-0.35;82.09;99173.44;1829696;78;21180;-66
2020/12/12 03:07:54;;;;;;;15.03;9.93;;;;;;;-0.35;82.06;99172.16;1829726;78;21152;-65
2020/12/12 03:10:22;;;;;;;16.62;9.65;;;;;;;-0.38;82.18;99173.44;1829723;78;21080;-65
2020/12/12 03:12:50;;;;;;;15.05;9.88;;;;;;;-0.39;82.23;99175.14;1827438;77;21048;-65
2020/12/12 03:15:18;;;;;;;14.28;10.25;;;;;;;-0.41;82.14;99179.86;1826588;78;22390;-65
2020/12/12 03:17:45;;;;;;;13.58;10.23;;;;;;;-0.48;82.21;99181.99;1826405;78;21108;-65
2020/12/12 03:20:13;;;;;;;13.90;8.98;;;;;;;-0.50;82.34;99181.99;1826501;78;21080;-65
2020/12/12 03:22:40;;;;;;;14.60;9.98;;;;;;;-0.48;82.36;99176.88;1826524;78;21154;-65
2020/12/12 03:25:08;;;;;;;14.63;10.28;;;;;;;-0.46;82.33;99177.73;1826529;78;21040;-65
2020/12/12 03:27:35;;;;;;;14.23;9.65;;;;;;;-0.47;82.22;99168.36;1826537;78;21201;-65
2020/12/12 03:30:03;;;;;;;13.08;9.15;;;;;;;-0.48;82.12;99171.77;1826463;78;21147;-65
2020/12/12 03:32:32;;;;;;;12.98;8.78;;;;;;;-0.50;82.12;99178.58;1826487;78;21131;-65
2020/12/12 03:35:00;;;;;;;14.07;9.93;;;;;;;-0.53;82.21;99187.09;1826514;78;21088;-65
2020/12/12 03:37:28;;;;;;;15.30;9.73;;;;;;;-0.55;82.29;99177.73;1826529;78;21064;-65
2020/12/12 03:39:56;;;;;;;12.65;9.88;;;;;;;-0.60;82.32;99171.34;1826523;78;21145;-65
2020/12/12 03:42:24;;;;;;;13.15;9.55;;;;;;;-0.67;82.48;99173.93;1826424;78;21118;-65
2020/12/12 03:44:52;;;;;;;12.98;10.48;;;;;;;-0.72;82.75;99171.38;1826459;78;21049;-65
2020/12/12 03:47:20;;;;;;;17.30;10.00;;;;;;;-0.70;82.90;99174.36;1826488;78;21247;-65
2020/12/12 03:49:47;;;;;;;13.55;8.70;;;;;;;-0.66;82.87;99167.55;1826515;78;21461;-65
2020/12/12 03:52:15;;;;;;;16.10;9.18;;;;;;;-0.62;82.85;99170.53;1826452;78;21346;-65
2020/12/12 03:54:43;;;;;;;15.40;10.05;;;;;;;-0.60;82.65;99159.85;1826418;78;21587;-65
2020/12/12 03:57:12;;;;;;;12.05;8.93;;;;;;;-0.61;82.68;99164.99;1826444;78;21052;-65
2020/12/12 03:59:40;;;;;;;16.23;9.90;;;;;;;-0.62;82.71;99173.08;1826479;78;21140;-65
2020/12/12 04:02:07;;;;;;;13.58;9.10;;;;;;;-0.60;82.53;99166.70;1826514;78;21485;-65
2020/12/12 04:04:35;;;;;;;13.40;10.10;;;;;;;-0.62;82.55;99169.25;1826468;78;22343;-65
2020/12/12 04:07:03;;;;;;;16.65;10.53;;;;;;;-0.62;82.49;99161.59;1826426;78;21176;-65
2020/12/12 04:09:31;;;;;;;13.62;10.68;;;;;;;-0.62;82.45;99157.76;1826434;78;21057;-65
2020/12/12 04:11:58;;;;;;;16.10;9.43;;;;;;;-0.62;82.43;99159.46;1826254;77;21195;-65
2020/12/12 04:14:26;;;;;;;13.95;9.55;;;;;;;-0.62;82.50;99158.19;1826468;78;21053;-65
2020/12/12 04:16:53;;;;;;;16.75;9.80;;;;;;;-0.61;82.40;99162.44;1826478;78;21144;-65
2020/12/12 04:19:21;;;;;;;11.25;9.00;;;;;;;-0.64;82.32;99154.78;1826370;78;21065;-65
2020/12/12 04:21:49;;;;;;;17.12;10.40;;;;;;;-0.66;82.31;99158.61;1826469;78;21056;-65
2020/12/12 04:24:17;;;;;;;14.23;9.08;;;;;;;-0.68;82.33;99160.73;1826461;78;21649;-65
2020/12/12 04:26:44;;;;;;;15.93;10.38;;;;;;;-0.69;82.23;99152.23;1826440;78;21155;-65
2020/12/12 04:29:13;;;;;;;14.28;9.70;;;;;;;-0.71;82.25;99148.39;1826520;78;21366;-65
2020/12/12 04:31:40;;;;;;;15.88;9.55;;;;;;;-0.70;82.26;99149.25;1826451;78;21910;-65
2020/12/12 04:34:09;;;;;;;13.40;8.98;;;;;;;-0.70;82.23;99138.60;1826466;78;21033;-65
2020/12/12 04:36:37;;;;;;;13.53;9.08;;;;;;;-0.68;82.27;99144.98;1826524;78;22007;-65
2020/12/12 04:39:04;;;;;;;12.73;8.63;;;;;;;-0.67;82.16;99145.84;1826432;78;21112;-65
2020/12/12 04:41:32;;;;;;;12.65;8.68;;;;;;;-0.67;82.07;99146.69;1826477;78;21168;-65
2020/12/12 04:43:59;;;;;;;16.97;11.18;;;;;;;-0.70;81.95;99160.31;1794719;78;21081;-65
2020/12/12 04:46:28;;;;;;;11.97;9.15;;;;;;;-0.72;81.85;99149.67;1826455;78;21532;-65
2020/12/12 04:48:56;;;;;;;13.15;10.50;;;;;;;-0.73;81.88;99156.48;1826450;78;21116;-65
2020/12/12 04:51:25;;;;;;;13.10;9.20;;;;;;;-0.74;81.88;99151.38;1826403;78;21536;-65
2020/12/12 04:53:58;;;;;;;14.80;10.05;;;;;;;-0.75;81.82;99153.08;1826452;78;21188;-65
2020/12/12 04:56:26;;;;;;;14.68;9.98;;;;;;;-0.75;81.73;99159.45;1826581;78;28033;-65
2020/12/12 04:58:54;;;;;;;15.63;9.68;;;;;;;-0.77;81.79;99156.48;1826450;78;21108;-66
2020/12/12 05:01:21;;;;;;;11.63;8.90;;;;;;;-0.77;81.87;99157.75;1826445;78;21056;-66
2020/12/12 05:03:49;;;;;;;13.00;8.55;;;;;;;-0.75;81.87;99170.09;1826432;78;21052;-66
2020/12/12 05:06:16;;;;;;;13.20;8.73;;;;;;;-0.73;81.75;99159.45;1826405;78;21360;-66
2020/12/12 05:08:44;;;;;;;13.35;9.20;;;;;;;-0.74;81.76;99170.52;1826362;78;21100;-66
2020/12/12 05:11:11;;;;;;;15.32;9.80;;;;;;;-0.76;81.62;99160.31;1826357;77;21040;-66
2020/12/12 05:13:39;;;;;;;13.60;9.65;;;;;;;-0.78;81.71;99164.56;1826297;78;21060;-66
2020/12/12 05:16:06;;;;;;;16.00;10.15;;;;;;;-0.78;81.82;99159.45;1826539;78;21617;-66
2020/12/12 05:18:34;;;;;;;17.62;9.88;;;;;;;-0.76;81.81;99156.91;1826401;78;21344;-66
2020/12/12 05:21:02;;;;;;;12.88;9.45;;;;;;;-0.75;81.66;99167.12;1826425;78;21080;-66
2020/12/12 05:23:30;;;;;;;16.60;10.95;;;;;;;-0.77;81.54;99162.44;1794872;78;21072;-65
2020/12/12 05:25:57;;;;;;;14.95;11.15;;;;;;;-0.80;81.54;99163.71;1826429;78;21116;-65
2020/12/12 05:28:25;;;;;;;16.50;10.48;;;;;;;-0.79;81.70;99167.12;1826443;78;21548;-65
2020/12/12 05:30:52;;;;;;;17.25;10.25;;;;;;;-0.77;81.72;99165.42;1826444;78;21199;-65
2020/12/12 05:33:24;;;;;;;16.93;9.68;;;;;;;-0.75;81.63;99168.82;1826610;78;21600;-65
2020/12/12 05:35:53;;;;;;;22.48;11.95;;;;;;;-0.75;81.46;99167.12;1826637;78;21055;-65
2020/12/12 05:38:20;;;;;;;17.48;9.98;;;;;;;-0.76;81.44;99162.02;1826591;78;21504;-66
2020/12/12 05:40:55;;;;;;;14.30;9.63;;;;;;;-0.75;81.54;99150.52;1826710;78;21465;-66
2020/12/12 05:43:33;;;;;;;18.23;11.15;;;;;;;-0.78;81.36;99163.71;1826612;78;21184;-66
2020/12/12 05:46:01;;;;;;;19.10;11.38;;;;;;;-0.83;81.51;99167.57;1826602;78;21167;-66
2020/12/12 05:48:29;;;;;;;14.35;10.40;;;;;;;-0.85;81.64;99169.27;1826661;78;21431;-66
2020/12/12 05:50:56;;;;;;;15.85;10.85;;;;;;;-0.82;81.65;99169.70;1826578;78;21116;-66
2020/12/12 05:53:24;;;;;;;15.18;10.03;;;;;;;-0.83;81.64;99173.95;1826674;78;21112;-65
2020/12/12 05:55:55;;;;;;;15.10;10.50;;;;;;;-0.84;81.69;99171.40;1826608;78;22221;-66
2020/12/12 05:58:23;;;;;;;17.17;10.90;;;;;;;-0.85;81.68;99182.04;1826521;78;21211;-66
2020/12/12 06:00:53;;;;;;;15.45;10.50;;;;;;;-0.86;81.71;99174.38;1826593;78;21068;-66
2020/12/12 06:03:32;;;;;;;16.48;11.20;;;;;;;-0.84;81.83;99175.23;1826697;78;21057;-66
2020/12/12 06:06:05;;;;;;;17.37;11.33;;;;;;;-0.82;81.69;99173.53;1826657;78;21049;-66
2020/12/12 06:08:35;;;;;;;15.68;10.78;;;;;;;-0.80;81.56;99173.11;1826673;78;21871;-66
2020/12/12 06:11:08;;;;;;;16.67;11.40;;;;;;;-0.80;81.78;99172.65;1826653;77;21552;-66
2020/12/12 06:13:37;;;;;;;18.42;12.33;;;;;;;-0.75;81.67;99170.95;1828251;78;21132;-66
2020/12/12 06:16:07;;;;;;;16.45;11.33;;;;;;;-0.73;81.66;99176.91;1829753;78;21528;-65
2020/12/12 06:18:50;;;;;;;16.00;11.93;;;;;;;-0.70;81.38;99173.50;1829899;78;21559;-66
2020/12/12 06:21:17;;;;;;;17.43;11.93;;;;;;;-0.71;81.28;99175.63;1815540;78;21274;-65
2020/12/12 06:23:45;;;;;;;17.37;11.35;;;;;;;-0.73;81.22;99179.46;1765050;78;21120;-65
2020/12/12 06:26:13;;;;;;;14.63;10.40;;;;;;;-0.75;81.22;99183.72;1829757;78;21152;-65
2020/12/12 06:28:44;;;;;;;17.98;11.57;;;;;;;-0.78;81.13;99179.03;1800019;78;21048;-65
2020/12/12 06:31:13;;;;;;;16.75;11.48;;;;;;;-0.85;81.10;99176.93;1829799;78;21036;-65
2020/12/12 06:33:51;;;;;;;19.75;12.65;;;;;;;-0.88;81.33;99181.18;1829734;78;21197;-66
2020/12/12 06:36:29;;;;;;;16.90;10.95;;;;;;;-0.89;81.38;99179.48;1829731;78;21083;-65
2020/12/12 06:39:24;;;;;;;18.62;12.85;;;;;;;-0.86;81.33;99183.31;1829722;78;21172;-66
2020/12/12 06:41:55;;;;;;;17.40;10.88;;;;;;;-0.87;81.21;99200.76;1829754;78;21061;-65
2020/12/12 06:44:38;;;;;;;20.68;12.45;;;;;;;-0.90;81.23;99191.81;1828930;78;21065;-65
2020/12/12 06:47:06;;;;;;;;;;;;;;;-0.93;81.34;99190.11;1832560;78;22251;-66
2020/12/12 06:49:35;;;;;;;22.87;13.53;;;;;;;-0.96;81.40;99190.11;1829707;78;20243;-66
2020/12/12 06:52:03;;;;;;;19.30;11.12;;;;;;;-0.99;81.54;99191.38;1829771;78;21044;-65
2020/12/12 06:54:31;;;;;;;20.23;12.45;;;;;;;-0.98;81.64;99193.08;1829703;78;21076;-66
2020/12/12 06:56:58;;;;;;;16.52;10.80;;;;;;;-0.95;81.70;99190.95;1829753;78;21048;-66
2020/12/12 06:59:36;;;;;;;16.85;11.15;;;;;;;-0.93;81.63;99185.01;1829717;78;21203;-66
2020/12/12 07:02:07;;;;;;;19.67;13.65;;;;;;;-0.92;81.46;99190.54;1829698;78;21135;-66
2020/12/12 07:04:37;;;;;;;22.05;13.28;;;;;;;-0.96;81.49;99186.70;1829745;78;21104;-65
2020/12/12 07:07:07;;;;;;;22.42;14.20;;;;;;;-0.99;81.68;99184.99;1829757;78;21211;-65
2020/12/12 07:09:36;;;;;;;19.92;12.15;;;;;;;-0.99;81.78;99187.55;1829772;78;21140;-65
2020/12/12 07:12:03;;;;;;;20.35;13.05;;;;;;;-0.99;81.71;99193.93;1829651;77;21349;-65
2020/12/12 07:14:31;;;;;;;18.95;11.25;;;;;;;-1.00;81.62;99178.22;1829592;78;21068;-67
2020/12/12 07:17:01;;;;;;;20.30;11.45;;;;;;;-1.01;81.69;99176.94;1829723;78;21482;-67
2020/12/12 07:19:37;;;;;;;18.57;10.80;;;;;;;-1.05;81.56;99176.94;1829680;78;21081;-66
2020/12/12 07:22:08;;;;;;;24.30;13.18;;;;;;;-1.09;81.76;99172.67;1829850;78;21100;-67
2020/12/12 07:24:36;;;;;;;18.55;11.65;;;;;;;-1.13;81.81;99168.84;1829756;78;21186;-67
2020/12/12 07:27:05;;;;;;;18.90;11.97;;;;;;;-1.16;82.09;99172.23;1829629;78;21186;-67
2020/12/12 07:29:32;;;;;;;19.30;12.63;;;;;;;-1.15;82.14;99170.53;1829713;78;21036;-67
2020/12/12 07:32:00;;;;;;;22.93;16.80;;;;;;;-1.19;82.14;99163.30;1829606;78;21076;-65
2020/12/12 07:34:28;;;;;;;18.92;11.38;;;;;;;-1.21;82.24;99161.62;1828262;78;21064;-65
2020/12/12 07:37:05;;;;;;;17.50;10.20;;;;;;;-1.22;82.46;99159.48;1829553;78;21254;-65
2020/12/12 07:39:35;;;;;;;19.25;11.10;;;;;;;-1.17;82.39;99169.25;1829662;78;21088;-66
2020/12/12 07:42:04;;;;;;;17.00;10.32;;;;;;;-1.16;82.16;99168.41;1829725;78;21057;-65
2020/12/12 07:44:36;;;;;;;15.60;10.88;;;;;;;-1.18;82.23;99163.72;1829985;78;21194;-65
2020/12/12 07:47:07;;;;;;;15.03;9.80;;;;;;;-1.17;82.42;99164.58;1829791;78;21183;-65
2020/12/12 07:49:36;;;;;;;20.88;11.83;;;;;;;-1.12;82.32;99156.08;1792889;80;21375;-65
2020/12/12 07:52:10;;;;;;;16.12;10.40;;;;;;;-1.11;82.20;99160.33;1793137;79;21165;-65
2020/12/12 07:54:53;;;;;;;18.32;10.30;;;;;;;-1.09;82.21;99150.13;1793060;80;21079;-66
2020/12/12 07:57:16;;;;;;;15.15;10.32;;;;;;;-1.06;81.99;99151.41;1793382;79;21168;-67
2020/12/12 07:59:44;;;;;;;18.60;11.30;;;;;;;-1.08;81.97;99154.38;1793094;80;21091;-66
2020/12/12 08:02:13;;;;;;;12.28;9.03;;;;;;;-1.11;82.03;99151.40;1793117;80;21133;-66
2020/12/12 08:04:41;;;;;;;19.32;11.95;;;;;;;-1.12;82.26;99143.74;1760187;81;21491;-65
2020/12/12 08:07:12;;;;;;;17.12;11.35;;;;;;;-1.11;82.46;99150.55;1760154;81;21079;-67
2020/12/12 08:09:52;;;;;;;16.55;9.95;;;;;;;-1.09;82.49;99152.68;1755985;81;21583;-66
2020/12/12 08:15:25;;;;;;;14.40;9.88;;;;;;;-1.10;82.15;99135.66;1873686;75;22301;-66
2020/12/12 08:17:50;;;;;;;13.38;8.98;;;;;;;-1.18;81.82;99131.82;1841353;77;21014;-66
2020/12/12 08:20:25;;;;;;;16.17;11.88;;;;;;;-1.26;81.82;99130.99;1841587;77;21138;-66
2020/12/12 08:22:54;;;;;;;13.48;9.63;;;;;;;-1.33;82.07;99120.34;1841431;78;20990;-67
2020/12/12 08:25:22;;;;;;;17.17;13.30;;;;;;;-1.39;82.27;99119.91;1841634;77;21569;-67
2020/12/12 08:27:51;;;;;;;19.17;12.35;;;;;;;-1.42;82.45;99116.11;1811450;78;21046;-67
2020/12/12 08:30:19;;;;;;;17.57;12.75;;;;;;;-1.41;82.59;99117.81;1812100;77;21489;-64
2020/12/12 08:32:47;;;;;;;14.73;10.55;;;;;;;-1.40;82.82;99122.48;1841503;78;21202;-65
2020/12/12 08:35:26;;;;;;;15.20;10.75;;;;;;;-1.34;82.89;99125.02;1841496;78;21074;-65
2020/12/12 08:38:00;;;;;;;16.87;9.53;;;;;;;-1.27;82.74;99127.16;1841566;78;21093;-65
2020/12/12 08:40:34;;;;;;;17.85;10.58;;;;;;;-1.23;82.63;99133.55;1841543;78;21058;-66
2020/12/12 08:43:08;;;;;;;18.57;12.07;;;;;;;-1.17;82.61;99140.33;1839680;78;21105;-66
2020/12/12 08:45:54;;;;;;;14.75;9.10;;;;;;;-1.14;82.42;99145.02;1841579;78;21352;-65
2020/12/12 08:48:23;;;;;;;15.00;10.10;;;;;;;-1.11;82.38;99146.30;1794857;78;21113;-65
2020/12/12 08:50:58;;;;;;;14.60;9.73;;;;;;;-1.09;82.08;99148.42;1840376;77;21569;-66
2020/12/12 08:53:38;;;;;;;16.62;10.80;;;;;;;-1.09;81.76;99147.15;1841486;78;21121;-66
2020/12/12 08:56:12;;;;;;;22.17;13.95;;;;;;;-1.12;81.80;99146.30;1841655;77;21069;-66
2020/12/12 08:58:59;;;;;;;18.00;11.55;;;;;;;-1.09;82.01;99154.80;1841535;77;21289;-66
2020/12/12 09:01:42;;;;;;;20.97;13.10;;;;;;;-1.04;82.04;99154.81;1841223;77;21541;-66
2020/12/12 09:04:17;;;;;;;19.60;12.47;;;;;;;-0.99;82.06;99149.26;1841521;77;21097;-65
2020/12/12 09:06:59;;;;;;;18.17;11.25;;;;;;;-0.91;81.95;99141.61;1841527;77;21030;-67
2020/12/12 09:09:27;;;;;;;20.60;12.58;;;;;;;-0.85;81.40;99133.53;1840971;78;21555;-67
2020/12/12 09:12:08;;;;;;;17.20;10.20;;;;;;;-0.85;81.01;99126.30;1824708;78;22234;-67
2020/12/12 09:14:44;;;;;;;16.35;10.45;;;;;;;-0.84;80.80;99129.27;1808273;79;21065;-65
2020/12/12 09:17:15;;;;;;;16.40;10.45;;;;;;;-0.88;80.55;99113.10;1808580;78;21497;-66
2020/12/12 09:19:44;;;;;;;19.98;12.28;;;;;;;-0.95;80.57;99115.66;1808637;79;21567;-66
2020/12/12 09:22:12;;;;;;;17.23;11.05;;;;;;;-1.01;80.67;99128.44;1808429;79;21112;-66
2020/12/12 09:24:40;;;;;;;21.45;14.18;;;;;;;-1.03;80.95;99130.14;1808391;78;21538;-66
2020/12/12 09:27:12;;;;;;;19.17;12.25;;;;;;;-1.04;80.99;99138.22;1807774;78;21155;-66
2020/12/12 09:29:39;;;;;;;23.18;14.33;;;;;;;-1.05;81.36;99127.16;1807909;79;21069;-66
2020/12/12 09:32:12;;;;;;;23.15;14.50;;;;;;;-1.01;81.24;99122.91;1807892;79;21101;-66
2020/12/12 09:34:40;;;;;;;20.92;15.15;;;;;;;-1.00;81.15;99122.06;1807897;79;21172;-66
2020/12/12 09:37:08;;;;;;;20.20;13.48;;;;;;;-0.99;80.95;99112.24;1807808;78;21690;-66
2020/12/12 09:39:36;;;;;;;21.35;13.78;;;;;;;-1.01;80.84;99108.02;1807805;79;21065;-66
2020/12/12 09:42:03;;;;;;;22.17;14.58;;;;;;;-1.05;80.70;99114.41;1807718;79;21553;-66
2020/12/12 09:44:31;;;;;;;22.95;15.08;;;;;;;-1.07;80.88;99121.62;1806872;78;21163;-66
2020/12/12 09:47:00;;;;;;;25.20;16.85;;;;;;;-1.07;81.03;99120.36;1807779;79;21041;-66
2020/12/12 09:49:28;;;;;;;22.73;14.60;;;;;;;-1.05;80.97;99125.89;1807886;79;23433;-67
2020/12/12 09:51:56;;;;;;;28.65;17.62;;;;;;;-1.03;80.81;99109.72;1807477;78;21061;-67
2020/12/12 09:54:23;;;;;;;34.78;19.48;;;;;;;-1.06;80.74;99115.25;1807764;78;21108;-67
2020/12/12 09:56:51;;;;;;;31.00;18.15;;;;;;;-1.09;80.86;99111.42;1807856;79;21180;-65
2020/12/12 09:59:19;;;;;;;31.70;18.32;;;;;;;-1.07;81.11;99105.89;1807864;79;21073;-66
2020/12/12 10:01:47;;;;;;;23.62;15.80;;;;;;;-1.04;80.94;99097.39;1807928;78;22352;-67
2020/12/12 10:04:15;;;;;;;27.22;16.07;;;;;;;-1.01;80.74;99093.56;1807791;79;21069;-67
2020/12/12 10:06:43;;;;;;;25.90;14.90;;;;;;;-1.02;80.42;99090.58;1807909;79;21568;-67
2020/12/12 10:09:11;;;;;;;26.70;15.08;;;;;;;-1.05;80.49;99090.58;1807833;79;21639;-66
2020/12/12 10:11:39;;;;;;;23.25;13.65;;;;;;;-1.05;80.41;99086.75;1807963;78;21477;-67
2020/12/12 10:14:06;;;;;;;23.00;14.78;;;;;;;-1.09;80.37;99079.52;1809426;79;21251;-66
2020/12/12 10:16:34;;;;;;;21.23;14.10;;;;;;;-1.08;80.53;99079.94;1813572;78;21112;-66
2020/12/12 10:19:02;;;;;;;19.90;12.13;;;;;;;-1.05;80.49;99080.38;1813506;79;21077;-66
2020/12/12 10:21:29;;;;;;;21.77;14.70;;;;;;;-1.01;80.35;99076.97;1813514;78;21045;-65
2020/12/12 10:23:57;;;;;;;25.37;13.55;;;;;;;-1.01;80.25;99078.67;1813550;78;21057;-65
2020/12/12 10:26:25;;;;;;;22.30;13.88;;;;;;;-1.02;80.24;99068.03;1813560;79;21339;-66
2020/12/12 10:28:54;;;;;;;21.00;12.95;;;;;;;-1.05;80.25;99059.53;1813539;78;21537;-66
2020/12/12 10:31:22;;;;;;;25.00;15.58;;;;;;;-1.05;80.29;99054.42;1813483;78;21085;-66
2020/12/12 10:33:49;;;;;;;28.50;14.10;;;;;;;-1.07;80.38;99062.50;1813474;78;21041;-66
2020/12/12 10:36:19;;;;;;;23.47;14.33;;;;;;;-1.10;80.44;99059.10;1815647;78;21143;-65
2020/12/12 10:38:46;;;;;;;24.67;15.03;;;;;;;-1.14;80.58;99051.02;1828031;78;21785;-68
2020/12/12 10:41:14;;;;;;;23.40;13.95;;;;;;;-1.17;80.61;99056.97;1822603;78;21668;-66
2020/12/12 10:43:42;;;;;;;23.90;14.93;;;;;;;-1.18;80.61;99060.38;1812340;78;21581;-66
2020/12/12 10:46:10;;;;;;;27.50;17.12;;;;;;;-1.18;80.86;99061.65;1812506;78;21623;-66
2020/12/12 10:48:38;;;;;;;34.58;19.12;;;;;;;-1.15;80.96;99064.20;1812301;79;21144;-66
2020/12/12 10:51:06;;;;;;;40.30;25.05;;;;;;;-1.13;80.73;99066.75;1812161;78;21892;-66
2020/12/12 10:53:34;;;;;;;35.13;19.00;;;;;;;-1.17;80.84;99068.45;1812331;78;21183;-66
2020/12/12 10:56:02;;;;;;;35.55;20.00;;;;;;;-1.15;80.93;99065.91;1812085;79;21180;-66
2020/12/12 10:58:30;;;;;;;28.75;18.50;;;;;;;-1.15;80.93;99066.75;1812223;79;21576;-66
2020/12/12 11:00:58;;;;;;;32.93;19.45;;;;;;;-1.15;81.00;99058.25;1812454;78;21136;-67
2020/12/12 11:03:26;;;;;;;29.95;18.52;;;;;;;-1.14;81.13;99052.30;1812406;79;21190;-66
2020/12/12 11:05:55;;;;;;;38.95;20.90;;;;;;;-1.16;80.85;99046.34;1811846;78;21184;-66
2020/12/12 11:08:22;;;;;;;35.45;18.27;;;;;;;-1.16;81.10;99051.02;1812033;78;21153;-66
2020/12/12 11:10:52;;;;;;;38.33;19.40;;;;;;;-1.15;80.97;99063.35;1811645;78;21172;-67
2020/12/12 11:13:20;;;;;;;36.25;19.12;;;;;;;-1.16;81.11;99064.20;1821136;78;21184;-65
2020/12/12 11:15:48;;;;;;;35.05;20.97;;;;;;;-1.15;81.29;99060.38;1807274;78;22114;-67
2020/12/12 11:18:16;;;;;;;29.90;19.55;;;;;;;-1.09;81.47;99070.59;1806541;78;21180;-66
2020/12/12 11:20:46;;;;;;;31.60;19.27;;;;;;;-1.03;81.27;99064.63;1806462;78;21121;-65
2020/12/12 11:23:14;;;;;;;28.02;15.55;;;;;;;-0.99;81.24;99059.06;1778306;79;21192;-65
2020/12/12 11:25:41;;;;;;;27.13;14.35;;;;;;;-0.96;80.78;99056.09;1806723;78;21192;-65
2020/12/12 11:28:09;;;;;;;23.67;14.33;;;;;;;-0.98;80.52;99052.69;1806780;79;21253;-66
2020/12/12 11:30:37;;;;;;;23.85;14.63;;;;;;;-1.01;80.34;99054.42;1808161;78;22226;-67
2020/12/12 11:33:06;;;;;;;23.73;15.13;;;;;;;-1.07;80.56;99054.00;1807961;78;21160;-66
2020/12/12 11:35:42;;;;;;;30.30;16.30;;;;;;;-1.11;80.79;99051.88;1808903;78;21556;-66